sensor_id;sensor_type;location;lat;lon;timestamp;P1;durP1;ratioP1;P2;durP2;ratioP2
37445;SDS011;23307;51.136;14.942;2023-03-16T00:02:15;4.40;;;2.50;;
37445;SDS011;23307;51.136;14.942;2023-03-16T00:04:40;2.50;;;2.00;;
37445;SDS011;23307;51.136;14.942;2023-03-16T00:07:06;4.43;;;2.10;;
37445;SDS011;23307;51.136;14.942;2023-03-16T00:09:34;4.10;;;2.20;;
37445;SDS011;23307;51.136;14.942;2023-03-16T00:12:04;3.03;;;2.00;;
37445;SDS011;23307;51.136;14.942;2023-03-16T00:14:31;3.40;;;2.00;;
37445;SDS011;23307;51.136;14.942;2023-03-16T00:16:59;3.53;;;2.07;;
37445;SDS011;23307;51.136;14.942;2023-03-16T00:19:25;5.83;;;2.30;;
37445;SDS011;23307;51.136;14.942;2023-03-16T00:21:51;4.57;;;2.10;;
37445;SDS011;23307;51.136;14.942;2023-03-16T00:24:17;3.87;;;1.87;;
37445;SDS011;23307;51.136;14.942;2023-03-16T00:26:44;5.53;;;2.40;;
37445;SDS011;23307;51.136;14.942;2023-03-16T00:29:12;6.87;;;2.10;;
37445;SDS011;23307;51.136;14.942;2023-03-16T00:31:39;2.80;;;1.90;;
37445;SDS011;23307;51.136;14.942;2023-03-16T00:34:08;3.97;;;2.13;;
37445;SDS011;23307;51.136;14.942;2023-03-16T00:36:34;3.03;;;1.77;;
37445;SDS011;23307;51.136;14.942;2023-03-16T00:39:02;5.63;;;2.20;;
37445;SDS011;23307;51.136;14.942;2023-03-16T00:41:29;7.07;;;2.30;;
37445;SDS011;23307;51.136;14.942;2023-03-16T00:43:54;4.80;;;1.97;;
37445;SDS011;23307;51.136;14.942;2023-03-16T00:46:20;4.73;;;2.00;;
37445;SDS011;23307;51.136;14.942;2023-03-16T00:48:51;4.63;;;2.37;;
37445;SDS011;23307;51.136;14.942;2023-03-16T00:51:17;5.53;;;2.13;;
37445;SDS011;23307;51.136;14.942;2023-03-16T00:53:44;5.07;;;2.20;;
37445;SDS011;23307;51.136;14.942;2023-03-16T00:56:10;4.63;;;2.40;;
37445;SDS011;23307;51.136;14.942;2023-03-16T00:58:38;4.40;;;2.40;;
37445;SDS011;23307;51.136;14.942;2023-03-16T01:01:08;5.90;;;2.10;;
37445;SDS011;23307;51.136;14.942;2023-03-16T01:03:40;7.63;;;2.47;;
37445;SDS011;23307;51.136;14.942;2023-03-16T01:06:08;4.40;;;2.50;;
37445;SDS011;23307;51.136;14.942;2023-03-16T01:08:36;5.03;;;2.30;;
37445;SDS011;23307;51.136;14.942;2023-03-16T01:11:07;3.47;;;2.00;;
37445;SDS011;23307;51.136;14.942;2023-03-16T01:13:34;5.63;;;2.20;;
37445;SDS011;23307;51.136;14.942;2023-03-16T01:16:00;3.40;;;2.00;;
37445;SDS011;23307;51.136;14.942;2023-03-16T01:18:26;3.83;;;2.27;;
37445;SDS011;23307;51.136;14.942;2023-03-16T01:20:52;2.50;;;1.87;;
37445;SDS011;23307;51.136;14.942;2023-03-16T01:23:18;4.40;;;2.30;;
37445;SDS011;23307;51.136;14.942;2023-03-16T01:25:44;2.87;;;2.17;;
37445;SDS011;23307;51.136;14.942;2023-03-16T01:28:17;4.30;;;2.00;;
37445;SDS011;23307;51.136;14.942;2023-03-16T01:30:44;6.57;;;2.53;;
37445;SDS011;23307;51.136;14.942;2023-03-16T01:33:09;5.07;;;2.20;;
37445;SDS011;23307;51.136;14.942;2023-03-16T01:35:35;5.83;;;2.20;;
37445;SDS011;23307;51.136;14.942;2023-03-16T01:38:00;4.23;;;2.30;;
37445;SDS011;23307;51.136;14.942;2023-03-16T01:40:26;5.37;;;2.47;;
37445;SDS011;23307;51.136;14.942;2023-03-16T01:42:58;4.63;;;2.37;;
37445;SDS011;23307;51.136;14.942;2023-03-16T01:48:32;6.13;;;2.47;;
37445;SDS011;23307;51.136;14.942;2023-03-16T01:51:02;5.80;;;2.60;;
37445;SDS011;23307;51.136;14.942;2023-03-16T01:53:31;6.70;;;2.47;;
37445;SDS011;23307;51.136;14.942;2023-03-16T01:55:58;5.67;;;2.70;;
37445;SDS011;23307;51.136;14.942;2023-03-16T01:58:27;3.90;;;2.30;;
37445;SDS011;23307;51.136;14.942;2023-03-16T02:00:55;6.60;;;2.43;;
37445;SDS011;23307;51.136;14.942;2023-03-16T02:03:22;6.17;;;3.00;;
37445;SDS011;23307;51.136;14.942;2023-03-16T02:05:50;5.30;;;2.67;;
37445;SDS011;23307;51.136;14.942;2023-03-16T02:08:23;5.47;;;2.40;;
37445;SDS011;23307;51.136;14.942;2023-03-16T02:10:49;4.13;;;2.47;;
37445;SDS011;23307;51.136;14.942;2023-03-16T02:13:18;5.13;;;2.80;;
37445;SDS011;23307;51.136;14.942;2023-03-16T02:15:45;8.77;;;2.83;;
37445;SDS011;23307;51.136;14.942;2023-03-16T02:18:11;4.50;;;2.77;;
37445;SDS011;23307;51.136;14.942;2023-03-16T02:23:45;4.87;;;2.80;;
37445;SDS011;23307;51.136;14.942;2023-03-16T02:29:39;5.23;;;2.83;;
37445;SDS011;23307;51.136;14.942;2023-03-16T02:32:23;8.17;;;2.80;;
37445;SDS011;23307;51.136;14.942;2023-03-16T02:34:50;8.30;;;2.80;;
37445;SDS011;23307;51.136;14.942;2023-03-16T02:37:16;5.37;;;2.80;;
37445;SDS011;23307;51.136;14.942;2023-03-16T02:39:42;6.07;;;2.77;;
37445;SDS011;23307;51.136;14.942;2023-03-16T02:42:11;5.37;;;3.10;;
37445;SDS011;23307;51.136;14.942;2023-03-16T02:44:39;4.87;;;3.10;;
37445;SDS011;23307;51.136;14.942;2023-03-16T02:47:12;7.03;;;2.90;;
37445;SDS011;23307;51.136;14.942;2023-03-16T02:49:45;6.23;;;2.97;;
37445;SDS011;23307;51.136;14.942;2023-03-16T02:52:10;4.00;;;2.80;;
37445;SDS011;23307;51.136;14.942;2023-03-16T02:54:36;5.73;;;2.97;;
37445;SDS011;23307;51.136;14.942;2023-03-16T02:57:02;5.27;;;2.67;;
37445;SDS011;23307;51.136;14.942;2023-03-16T02:59:28;5.40;;;2.50;;
37445;SDS011;23307;51.136;14.942;2023-03-16T03:01:54;4.97;;;2.80;;
37445;SDS011;23307;51.136;14.942;2023-03-16T03:04:19;4.30;;;2.80;;
37445;SDS011;23307;51.136;14.942;2023-03-16T03:06:47;5.13;;;3.33;;
37445;SDS011;23307;51.136;14.942;2023-03-16T03:09:12;7.07;;;2.70;;
37445;SDS011;23307;51.136;14.942;2023-03-16T03:11:38;5.67;;;2.87;;
37445;SDS011;23307;51.136;14.942;2023-03-16T03:14:04;6.87;;;2.80;;
37445;SDS011;23307;51.136;14.942;2023-03-16T03:16:30;3.90;;;2.40;;
37445;SDS011;23307;51.136;14.942;2023-03-16T03:18:55;4.90;;;2.53;;
37445;SDS011;23307;51.136;14.942;2023-03-16T03:21:22;6.40;;;2.73;;
37445;SDS011;23307;51.136;14.942;2023-03-16T03:23:48;9.40;;;2.53;;
37445;SDS011;23307;51.136;14.942;2023-03-16T03:26:14;4.43;;;2.50;;
37445;SDS011;23307;51.136;14.942;2023-03-16T03:28:40;7.20;;;2.27;;
37445;SDS011;23307;51.136;14.942;2023-03-16T03:31:06;5.17;;;2.50;;
37445;SDS011;23307;51.136;14.942;2023-03-16T03:33:36;5.07;;;2.60;;
37445;SDS011;23307;51.136;14.942;2023-03-16T03:36:02;6.40;;;2.70;;
37445;SDS011;23307;51.136;14.942;2023-03-16T03:38:28;4.90;;;2.90;;
37445;SDS011;23307;51.136;14.942;2023-03-16T03:40:53;6.07;;;2.50;;
37445;SDS011;23307;51.136;14.942;2023-03-16T03:43:23;5.87;;;2.83;;
37445;SDS011;23307;51.136;14.942;2023-03-16T03:45:53;6.83;;;2.83;;
37445;SDS011;23307;51.136;14.942;2023-03-16T03:48:23;6.57;;;3.00;;
37445;SDS011;23307;51.136;14.942;2023-03-16T03:50:49;6.73;;;2.60;;
37445;SDS011;23307;51.136;14.942;2023-03-16T03:53:15;7.63;;;3.33;;
37445;SDS011;23307;51.136;14.942;2023-03-16T03:55:40;6.00;;;3.10;;
37445;SDS011;23307;51.136;14.942;2023-03-16T03:58:06;10.77;;;3.30;;
37445;SDS011;23307;51.136;14.942;2023-03-16T04:00:32;7.93;;;2.87;;
37445;SDS011;23307;51.136;14.942;2023-03-16T04:02:57;5.77;;;2.70;;
37445;SDS011;23307;51.136;14.942;2023-03-16T04:05:23;5.77;;;3.73;;
37445;SDS011;23307;51.136;14.942;2023-03-16T04:07:51;5.43;;;2.57;;
37445;SDS011;23307;51.136;14.942;2023-03-16T04:10:28;5.93;;;2.70;;
37445;SDS011;23307;51.136;14.942;2023-03-16T04:12:55;6.50;;;3.00;;
37445;SDS011;23307;51.136;14.942;2023-03-16T04:15:21;6.10;;;3.17;;
37445;SDS011;23307;51.136;14.942;2023-03-16T04:17:47;4.97;;;2.50;;
37445;SDS011;23307;51.136;14.942;2023-03-16T04:20:13;4.80;;;3.07;;
37445;SDS011;23307;51.136;14.942;2023-03-16T04:22:43;6.70;;;3.60;;
37445;SDS011;23307;51.136;14.942;2023-03-16T04:25:09;7.47;;;3.43;;
37445;SDS011;23307;51.136;14.942;2023-03-16T04:27:36;7.83;;;3.13;;
37445;SDS011;23307;51.136;14.942;2023-03-16T04:30:05;7.40;;;3.37;;
37445;SDS011;23307;51.136;14.942;2023-03-16T04:32:38;5.73;;;3.50;;
37445;SDS011;23307;51.136;14.942;2023-03-16T04:35:04;7.20;;;3.73;;
37445;SDS011;23307;51.136;14.942;2023-03-16T04:37:30;5.80;;;3.43;;
37445;SDS011;23307;51.136;14.942;2023-03-16T04:39:55;6.53;;;3.77;;
37445;SDS011;23307;51.136;14.942;2023-03-16T04:42:21;9.80;;;3.73;;
37445;SDS011;23307;51.136;14.942;2023-03-16T04:44:47;5.47;;;3.50;;
37445;SDS011;23307;51.136;14.942;2023-03-16T04:47:13;5.13;;;3.27;;
37445;SDS011;23307;51.136;14.942;2023-03-16T04:49:40;6.97;;;3.00;;
37445;SDS011;23307;51.136;14.942;2023-03-16T04:52:06;8.83;;;3.47;;
37445;SDS011;23307;51.136;14.942;2023-03-16T04:54:32;5.40;;;3.60;;
37445;SDS011;23307;51.136;14.942;2023-03-16T04:56:58;7.40;;;3.70;;
37445;SDS011;23307;51.136;14.942;2023-03-16T04:59:25;5.50;;;3.20;;
37445;SDS011;23307;51.136;14.942;2023-03-16T05:01:51;8.47;;;3.53;;
37445;SDS011;23307;51.136;14.942;2023-03-16T05:04:17;9.30;;;3.73;;
37445;SDS011;23307;51.136;14.942;2023-03-16T05:06:43;6.87;;;3.80;;
37445;SDS011;23307;51.136;14.942;2023-03-16T05:09:09;9.13;;;5.10;;
37445;SDS011;23307;51.136;14.942;2023-03-16T05:11:34;5.80;;;3.43;;
37445;SDS011;23307;51.136;14.942;2023-03-16T05:14:00;9.00;;;6.20;;
37445;SDS011;23307;51.136;14.942;2023-03-16T05:16:29;9.57;;;5.37;;
37445;SDS011;23307;51.136;14.942;2023-03-16T05:18:58;8.20;;;5.03;;
37445;SDS011;23307;51.136;14.942;2023-03-16T05:21:24;10.97;;;5.90;;
37445;SDS011;23307;51.136;14.942;2023-03-16T05:23:50;10.23;;;7.03;;
37445;SDS011;23307;51.136;14.942;2023-03-16T05:26:15;12.37;;;7.00;;
37445;SDS011;23307;51.136;14.942;2023-03-16T05:28:42;8.50;;;4.50;;
37445;SDS011;23307;51.136;14.942;2023-03-16T05:31:08;9.20;;;4.33;;
37445;SDS011;23307;51.136;14.942;2023-03-16T05:33:33;9.47;;;5.17;;
37445;SDS011;23307;51.136;14.942;2023-03-16T05:35:59;8.10;;;4.73;;
37445;SDS011;23307;51.136;14.942;2023-03-16T05:38:26;6.33;;;4.90;;
37445;SDS011;23307;51.136;14.942;2023-03-16T05:40:52;9.47;;;5.57;;
37445;SDS011;23307;51.136;14.942;2023-03-16T05:43:19;9.33;;;4.43;;
37445;SDS011;23307;51.136;14.942;2023-03-16T05:45:45;11.00;;;5.23;;
37445;SDS011;23307;51.136;14.942;2023-03-16T05:48:11;7.23;;;4.93;;
37445;SDS011;23307;51.136;14.942;2023-03-16T05:50:38;8.20;;;5.53;;
37445;SDS011;23307;51.136;14.942;2023-03-16T05:53:04;9.07;;;4.97;;
37445;SDS011;23307;51.136;14.942;2023-03-16T05:55:30;7.97;;;5.13;;
37445;SDS011;23307;51.136;14.942;2023-03-16T05:57:55;8.13;;;5.30;;
37445;SDS011;23307;51.136;14.942;2023-03-16T06:00:21;8.10;;;5.07;;
37445;SDS011;23307;51.136;14.942;2023-03-16T06:02:47;10.83;;;5.30;;
37445;SDS011;23307;51.136;14.942;2023-03-16T06:05:15;10.50;;;5.33;;
37445;SDS011;23307;51.136;14.942;2023-03-16T06:07:42;9.50;;;5.90;;
37445;SDS011;23307;51.136;14.942;2023-03-16T06:10:08;9.57;;;6.10;;
37445;SDS011;23307;51.136;14.942;2023-03-16T06:12:35;9.13;;;5.80;;
37445;SDS011;23307;51.136;14.942;2023-03-16T06:15:00;11.17;;;6.37;;
37445;SDS011;23307;51.136;14.942;2023-03-16T06:17:26;13.93;;;8.80;;
37445;SDS011;23307;51.136;14.942;2023-03-16T06:19:52;12.43;;;7.03;;
37445;SDS011;23307;51.136;14.942;2023-03-16T06:22:17;10.50;;;5.90;;
37445;SDS011;23307;51.136;14.942;2023-03-16T06:24:43;11.17;;;6.00;;
37445;SDS011;23307;51.136;14.942;2023-03-16T06:27:08;8.87;;;5.63;;
37445;SDS011;23307;51.136;14.942;2023-03-16T06:29:34;10.57;;;6.20;;
37445;SDS011;23307;51.136;14.942;2023-03-16T06:32:00;10.00;;;6.20;;
37445;SDS011;23307;51.136;14.942;2023-03-16T06:34:25;10.77;;;6.67;;
37445;SDS011;23307;51.136;14.942;2023-03-16T06:36:51;12.87;;;9.00;;
37445;SDS011;23307;51.136;14.942;2023-03-16T06:39:17;11.07;;;7.67;;
37445;SDS011;23307;51.136;14.942;2023-03-16T06:41:42;11.67;;;6.97;;
37445;SDS011;23307;51.136;14.942;2023-03-16T06:44:08;11.73;;;6.83;;
37445;SDS011;23307;51.136;14.942;2023-03-16T06:46:35;14.60;;;10.50;;
37445;SDS011;23307;51.136;14.942;2023-03-16T06:49:01;14.47;;;7.47;;
37445;SDS011;23307;51.136;14.942;2023-03-16T06:51:28;13.17;;;6.73;;
37445;SDS011;23307;51.136;14.942;2023-03-16T06:53:54;11.00;;;6.90;;
37445;SDS011;23307;51.136;14.942;2023-03-16T06:56:19;13.73;;;7.13;;
37445;SDS011;23307;51.136;14.942;2023-03-16T06:58:44;9.23;;;6.67;;
37445;SDS011;23307;51.136;14.942;2023-03-16T07:01:10;12.10;;;7.23;;
37445;SDS011;23307;51.136;14.942;2023-03-16T07:03:36;9.80;;;7.13;;
37445;SDS011;23307;51.136;14.942;2023-03-16T07:06:02;9.93;;;7.10;;
37445;SDS011;23307;51.136;14.942;2023-03-16T07:08:27;9.57;;;6.90;;
37445;SDS011;23307;51.136;14.942;2023-03-16T07:10:53;9.93;;;6.70;;
37445;SDS011;23307;51.136;14.942;2023-03-16T07:13:18;12.40;;;6.57;;
37445;SDS011;23307;51.136;14.942;2023-03-16T07:15:44;9.30;;;6.30;;
37445;SDS011;23307;51.136;14.942;2023-03-16T07:18:09;10.37;;;6.60;;
37445;SDS011;23307;51.136;14.942;2023-03-16T07:20:36;11.17;;;6.47;;
37445;SDS011;23307;51.136;14.942;2023-03-16T07:23:02;10.13;;;6.67;;
37445;SDS011;23307;51.136;14.942;2023-03-16T07:25:28;11.93;;;6.97;;
37445;SDS011;23307;51.136;14.942;2023-03-16T07:27:55;10.47;;;6.70;;
37445;SDS011;23307;51.136;14.942;2023-03-16T07:30:21;10.40;;;6.23;;
37445;SDS011;23307;51.136;14.942;2023-03-16T07:32:49;10.80;;;6.63;;
37445;SDS011;23307;51.136;14.942;2023-03-16T07:35:14;7.90;;;5.77;;
37445;SDS011;23307;51.136;14.942;2023-03-16T07:37:41;11.57;;;5.67;;
37445;SDS011;23307;51.136;14.942;2023-03-16T07:40:07;6.83;;;4.80;;
37445;SDS011;23307;51.136;14.942;2023-03-16T07:42:33;9.67;;;3.90;;
37445;SDS011;23307;51.136;14.942;2023-03-16T07:45:00;6.00;;;3.40;;
37445;SDS011;23307;51.136;14.942;2023-03-16T07:47:25;3.73;;;2.40;;
37445;SDS011;23307;51.136;14.942;2023-03-16T07:49:52;4.87;;;2.60;;
37445;SDS011;23307;51.136;14.942;2023-03-16T07:52:17;10.17;;;4.07;;
37445;SDS011;23307;51.136;14.942;2023-03-16T07:54:43;7.27;;;4.93;;
37445;SDS011;23307;51.136;14.942;2023-03-16T07:57:08;10.77;;;5.67;;
37445;SDS011;23307;51.136;14.942;2023-03-16T07:59:34;8.23;;;5.07;;
37445;SDS011;23307;51.136;14.942;2023-03-16T08:01:59;9.83;;;4.87;;
37445;SDS011;23307;51.136;14.942;2023-03-16T08:04:25;9.57;;;5.03;;
37445;SDS011;23307;51.136;14.942;2023-03-16T08:06:50;8.60;;;4.53;;
37445;SDS011;23307;51.136;14.942;2023-03-16T08:09:17;7.93;;;4.80;;
37445;SDS011;23307;51.136;14.942;2023-03-16T08:11:43;11.10;;;5.20;;
37445;SDS011;23307;51.136;14.942;2023-03-16T08:14:08;6.63;;;4.67;;
37445;SDS011;23307;51.136;14.942;2023-03-16T08:16:34;9.27;;;4.90;;
37445;SDS011;23307;51.136;14.942;2023-03-16T08:19:00;8.30;;;4.77;;
37445;SDS011;23307;51.136;14.942;2023-03-16T08:21:26;6.77;;;4.20;;
37445;SDS011;23307;51.136;14.942;2023-03-16T08:23:52;7.57;;;4.30;;
37445;SDS011;23307;51.136;14.942;2023-03-16T08:26:21;8.40;;;4.40;;
37445;SDS011;23307;51.136;14.942;2023-03-16T08:28:49;8.57;;;3.90;;
37445;SDS011;23307;51.136;14.942;2023-03-16T08:31:16;6.17;;;3.60;;
37445;SDS011;23307;51.136;14.942;2023-03-16T08:33:42;7.67;;;3.40;;
37445;SDS011;23307;51.136;14.942;2023-03-16T08:36:10;7.13;;;1.70;;
37445;SDS011;23307;51.136;14.942;2023-03-16T08:38:38;4.83;;;2.30;;
37445;SDS011;23307;51.136;14.942;2023-03-16T08:41:11;7.77;;;2.33;;
37445;SDS011;23307;51.136;14.942;2023-03-16T08:43:36;3.87;;;2.17;;
37445;SDS011;23307;51.136;14.942;2023-03-16T08:46:02;4.87;;;2.63;;
37445;SDS011;23307;51.136;14.942;2023-03-16T08:48:29;5.27;;;2.40;;
37445;SDS011;23307;51.136;14.942;2023-03-16T08:50:55;6.10;;;3.07;;
37445;SDS011;23307;51.136;14.942;2023-03-16T08:53:20;5.07;;;2.60;;
37445;SDS011;23307;51.136;14.942;2023-03-16T08:55:46;5.57;;;2.40;;
37445;SDS011;23307;51.136;14.942;2023-03-16T08:58:12;6.27;;;2.80;;
37445;SDS011;23307;51.136;14.942;2023-03-16T09:00:38;5.67;;;2.87;;
37445;SDS011;23307;51.136;14.942;2023-03-16T09:03:04;7.13;;;3.37;;
37445;SDS011;23307;51.136;14.942;2023-03-16T09:05:30;7.43;;;3.67;;
37445;SDS011;23307;51.136;14.942;2023-03-16T09:07:58;9.60;;;3.63;;
37445;SDS011;23307;51.136;14.942;2023-03-16T09:10:24;6.73;;;3.50;;
37445;SDS011;23307;51.136;14.942;2023-03-16T09:12:51;8.00;;;1.97;;
37445;SDS011;23307;51.136;14.942;2023-03-16T09:15:18;5.57;;;2.60;;
37445;SDS011;23307;51.136;14.942;2023-03-16T09:17:45;6.67;;;2.07;;
37445;SDS011;23307;51.136;14.942;2023-03-16T09:20:12;6.07;;;1.90;;
37445;SDS011;23307;51.136;14.942;2023-03-16T09:22:39;5.50;;;2.10;;
37445;SDS011;23307;51.136;14.942;2023-03-16T09:25:05;3.93;;;1.77;;
37445;SDS011;23307;51.136;14.942;2023-03-16T09:27:32;5.17;;;2.30;;
37445;SDS011;23307;51.136;14.942;2023-03-16T09:30:00;3.73;;;1.80;;
37445;SDS011;23307;51.136;14.942;2023-03-16T09:32:28;7.03;;;2.20;;
37445;SDS011;23307;51.136;14.942;2023-03-16T09:34:54;5.20;;;1.57;;
37445;SDS011;23307;51.136;14.942;2023-03-16T09:37:20;8.80;;;2.10;;
37445;SDS011;23307;51.136;14.942;2023-03-16T09:39:49;6.43;;;1.80;;
37445;SDS011;23307;51.136;14.942;2023-03-16T09:47:59;5.00;;;2.13;;
37445;SDS011;23307;51.136;14.942;2023-03-16T09:50:29;2.53;;;1.57;;
37445;SDS011;23307;51.136;14.942;2023-03-16T09:53:07;5.00;;;2.03;;
37445;SDS011;23307;51.136;14.942;2023-03-16T09:55:47;5.00;;;2.23;;
37445;SDS011;23307;51.136;14.942;2023-03-16T09:58:18;7.33;;;1.87;;
37445;SDS011;23307;51.136;14.942;2023-03-16T10:00:49;6.33;;;2.60;;
37445;SDS011;23307;51.136;14.942;2023-03-16T10:03:35;7.07;;;2.20;;
37445;SDS011;23307;51.136;14.942;2023-03-16T10:06:24;6.90;;;2.13;;
37445;SDS011;23307;51.136;14.942;2023-03-16T10:08:52;3.17;;;1.70;;
37445;SDS011;23307;51.136;14.942;2023-03-16T10:11:43;4.80;;;2.10;;
37445;SDS011;23307;51.136;14.942;2023-03-16T10:16:49;3.47;;;1.80;;
37445;SDS011;23307;51.136;14.942;2023-03-16T10:19:53;5.97;;;2.13;;
37445;SDS011;23307;51.136;14.942;2023-03-16T10:22:24;5.55;;;2.10;;
37445;SDS011;23307;51.136;14.942;2023-03-16T10:27:33;4.00;;;1.85;;
37445;SDS011;23307;51.136;14.942;2023-03-16T10:30:05;7.40;;;1.75;;
37445;SDS011;23307;51.136;14.942;2023-03-16T10:32:43;4.97;;;1.80;;
37445;SDS011;23307;51.136;14.942;2023-03-16T10:35:21;3.13;;;1.80;;
37445;SDS011;23307;51.136;14.942;2023-03-16T10:37:52;6.45;;;1.70;;
37445;SDS011;23307;51.136;14.942;2023-03-16T10:40:17;4.05;;;1.77;;
37445;SDS011;23307;51.136;14.942;2023-03-16T10:42:44;5.72;;;1.30;;
37445;SDS011;23307;51.136;14.942;2023-03-16T10:45:18;2.13;;;1.48;;
37445;SDS011;23307;51.136;14.942;2023-03-16T10:47:50;3.58;;;1.35;;
37445;SDS011;23307;51.136;14.942;2023-03-16T10:50:21;3.50;;;1.33;;
37445;SDS011;23307;51.136;14.942;2023-03-16T10:52:49;2.33;;;1.23;;
37445;SDS011;23307;51.136;14.942;2023-03-16T10:55:21;2.65;;;1.40;;
37445;SDS011;23307;51.136;14.942;2023-03-16T10:57:51;4.60;;;1.40;;
37445;SDS011;23307;51.136;14.942;2023-03-16T11:00:20;1.42;;;1.20;;
37445;SDS011;23307;51.136;14.942;2023-03-16T11:03:00;3.47;;;1.50;;
37445;SDS011;23307;51.136;14.942;2023-03-16T11:05:44;6.78;;;1.23;;
37445;SDS011;23307;51.136;14.942;2023-03-16T11:10:36;5.28;;;1.52;;
37445;SDS011;23307;51.136;14.942;2023-03-16T11:13:10;4.03;;;1.27;;
37445;SDS011;23307;51.136;14.942;2023-03-16T11:15:39;3.95;;;1.52;;
37445;SDS011;23307;51.136;14.942;2023-03-16T11:18:25;2.92;;;1.00;;
37445;SDS011;23307;51.136;14.942;2023-03-16T11:20:52;2.80;;;1.25;;
37445;SDS011;23307;51.136;14.942;2023-03-16T11:23:20;2.53;;;1.20;;
37445;SDS011;23307;51.136;14.942;2023-03-16T11:25:53;5.65;;;1.70;;
37445;SDS011;23307;51.136;14.942;2023-03-16T11:28:39;2.78;;;1.05;;
37445;SDS011;23307;51.136;14.942;2023-03-16T11:31:12;2.00;;;1.10;;
37445;SDS011;23307;51.136;14.942;2023-03-16T11:33:45;14.43;;;9.05;;
37445;SDS011;23307;51.136;14.942;2023-03-16T11:39:20;4.15;;;2.55;;
37445;SDS011;23307;51.136;14.942;2023-03-16T11:41:52;3.78;;;2.00;;
37445;SDS011;23307;51.136;14.942;2023-03-16T11:44:41;2.60;;;1.50;;
37445;SDS011;23307;51.136;14.942;2023-03-16T11:50:27;2.60;;;1.02;;
37445;SDS011;23307;51.136;14.942;2023-03-16T11:55:44;1.98;;;1.23;;
37445;SDS011;23307;51.136;14.942;2023-03-16T12:01:23;2.65;;;1.00;;
37445;SDS011;23307;51.136;14.942;2023-03-16T12:06:30;4.28;;;1.00;;
37445;SDS011;23307;51.136;14.942;2023-03-16T12:09:13;2.92;;;1.13;;
37445;SDS011;23307;51.136;14.942;2023-03-16T12:11:51;2.55;;;1.17;;
37445;SDS011;23307;51.136;14.942;2023-03-16T12:14:33;2.92;;;1.00;;
37445;SDS011;23307;51.136;14.942;2023-03-16T12:17:12;1.65;;;0.90;;
37445;SDS011;23307;51.136;14.942;2023-03-16T12:19:43;1.63;;;0.82;;
37445;SDS011;23307;51.136;14.942;2023-03-16T12:24:47;2.80;;;1.08;;
37445;SDS011;23307;51.136;14.942;2023-03-16T12:27:32;1.55;;;1.00;;
37445;SDS011;23307;51.136;14.942;2023-03-16T12:30:05;2.35;;;1.38;;
37445;SDS011;23307;51.136;14.942;2023-03-16T12:33:03;6.43;;;1.20;;
37445;SDS011;23307;51.136;14.942;2023-03-16T12:35:45;1.80;;;0.93;;
37445;SDS011;23307;51.136;14.942;2023-03-16T12:38:39;3.55;;;0.90;;
37445;SDS011;23307;51.136;14.942;2023-03-16T12:46:25;3.22;;;1.38;;
37445;SDS011;23307;51.136;14.942;2023-03-16T12:49:03;2.40;;;1.27;;
37445;SDS011;23307;51.136;14.942;2023-03-16T12:51:34;2.70;;;1.15;;
37445;SDS011;23307;51.136;14.942;2023-03-16T12:54:02;1.77;;;1.08;;
37445;SDS011;23307;51.136;14.942;2023-03-16T12:56:31;1.63;;;0.93;;
37445;SDS011;23307;51.136;14.942;2023-03-16T12:59:13;2.25;;;1.00;;
37445;SDS011;23307;51.136;14.942;2023-03-16T13:01:42;2.78;;;0.80;;
37445;SDS011;23307;51.136;14.942;2023-03-16T13:04:19;2.78;;;1.40;;
37445;SDS011;23307;51.136;14.942;2023-03-16T13:06:49;3.80;;;1.60;;
37445;SDS011;23307;51.136;14.942;2023-03-16T13:09:25;2.95;;;1.15;;
37445;SDS011;23307;51.136;14.942;2023-03-16T13:11:55;3.10;;;1.30;;
37445;SDS011;23307;51.136;14.942;2023-03-16T13:14:38;1.58;;;1.13;;
37445;SDS011;23307;51.136;14.942;2023-03-16T13:19:39;3.70;;;1.27;;
37445;SDS011;23307;51.136;14.942;2023-03-16T13:22:19;1.83;;;1.10;;
37445;SDS011;23307;51.136;14.942;2023-03-16T13:24:52;5.93;;;1.48;;
37445;SDS011;23307;51.136;14.942;2023-03-16T13:27:35;3.53;;;1.60;;
37445;SDS011;23307;51.136;14.942;2023-03-16T13:32:59;3.45;;;1.83;;
37445;SDS011;23307;51.136;14.942;2023-03-16T13:35:39;3.88;;;1.67;;
37445;SDS011;23307;51.136;14.942;2023-03-16T13:38:05;4.32;;;1.42;;
37445;SDS011;23307;51.136;14.942;2023-03-16T13:40:45;2.50;;;1.50;;
37445;SDS011;23307;51.136;14.942;2023-03-16T13:43:15;4.63;;;1.50;;
37445;SDS011;23307;51.136;14.942;2023-03-16T13:45:43;3.03;;;1.38;;
37445;SDS011;23307;51.136;14.942;2023-03-16T13:48:12;3.58;;;1.48;;
37445;SDS011;23307;51.136;14.942;2023-03-16T13:50:38;5.32;;;1.92;;
37445;SDS011;23307;51.136;14.942;2023-03-16T13:55:46;4.72;;;1.80;;
37445;SDS011;23307;51.136;14.942;2023-03-16T13:58:18;13.98;;;10.75;;
37445;SDS011;23307;51.136;14.942;2023-03-16T14:00:55;3.50;;;1.80;;
37445;SDS011;23307;51.136;14.942;2023-03-16T14:03:22;3.95;;;1.90;;
37445;SDS011;23307;51.136;14.942;2023-03-16T14:06:02;4.28;;;2.72;;
37445;SDS011;23307;51.136;14.942;2023-03-16T14:08:29;6.82;;;4.45;;
37445;SDS011;23307;51.136;14.942;2023-03-16T14:10:56;4.22;;;1.90;;
37445;SDS011;23307;51.136;14.942;2023-03-16T14:13:23;3.22;;;1.95;;
37445;SDS011;23307;51.136;14.942;2023-03-16T14:15:53;5.85;;;1.77;;
37445;SDS011;23307;51.136;14.942;2023-03-16T14:18:25;2.97;;;1.55;;
37445;SDS011;23307;51.136;14.942;2023-03-16T14:21:04;4.57;;;1.90;;
37445;SDS011;23307;51.136;14.942;2023-03-16T14:23:35;3.75;;;1.60;;
37445;SDS011;23307;51.136;14.942;2023-03-16T14:26:08;2.38;;;1.35;;
37445;SDS011;23307;51.136;14.942;2023-03-16T14:28:40;3.45;;;1.77;;
37445;SDS011;23307;51.136;14.942;2023-03-16T14:31:18;4.82;;;1.80;;
37445;SDS011;23307;51.136;14.942;2023-03-16T14:33:44;2.65;;;1.38;;
37445;SDS011;23307;51.136;14.942;2023-03-16T14:36:11;4.35;;;1.42;;
37445;SDS011;23307;51.136;14.942;2023-03-16T14:38:39;6.25;;;1.65;;
37445;SDS011;23307;51.136;14.942;2023-03-16T14:43:34;2.00;;;1.23;;
37445;SDS011;23307;51.136;14.942;2023-03-16T14:46:05;4.80;;;1.38;;
37445;SDS011;23307;51.136;14.942;2023-03-16T14:48:32;1.92;;;1.15;;
37445;SDS011;23307;51.136;14.942;2023-03-16T14:50:59;2.38;;;1.33;;
37445;SDS011;23307;51.136;14.942;2023-03-16T14:53:27;2.78;;;1.10;;
37445;SDS011;23307;51.136;14.942;2023-03-16T14:55:53;1.55;;;1.10;;
37445;SDS011;23307;51.136;14.942;2023-03-16T14:58:20;3.28;;;1.10;;
37445;SDS011;23307;51.136;14.942;2023-03-16T15:00:46;1.92;;;1.35;;
37445;SDS011;23307;51.136;14.942;2023-03-16T15:03:13;3.05;;;1.40;;
37445;SDS011;23307;51.136;14.942;2023-03-16T15:05:41;2.80;;;1.23;;
37445;SDS011;23307;51.136;14.942;2023-03-16T15:08:13;3.03;;;1.30;;
37445;SDS011;23307;51.136;14.942;2023-03-16T15:10:50;2.08;;;1.10;;
37445;SDS011;23307;51.136;14.942;2023-03-16T15:13:17;3.55;;;1.30;;
37445;SDS011;23307;51.136;14.942;2023-03-16T15:16:03;3.20;;;1.30;;
37445;SDS011;23307;51.136;14.942;2023-03-16T15:18:29;2.25;;;1.40;;
37445;SDS011;23307;51.136;14.942;2023-03-16T15:20:57;2.53;;;1.10;;
37445;SDS011;23307;51.136;14.942;2023-03-16T15:23:23;1.85;;;1.20;;
37445;SDS011;23307;51.136;14.942;2023-03-16T15:25:49;3.00;;;1.38;;
37445;SDS011;23307;51.136;14.942;2023-03-16T15:28:20;2.17;;;1.33;;
37445;SDS011;23307;51.136;14.942;2023-03-16T15:30:51;2.40;;;1.35;;
37445;SDS011;23307;51.136;14.942;2023-03-16T15:33:18;4.20;;;1.55;;
37445;SDS011;23307;51.136;14.942;2023-03-16T15:35:44;2.58;;;1.35;;
37445;SDS011;23307;51.136;14.942;2023-03-16T15:38:13;6.55;;;1.60;;
37445;SDS011;23307;51.136;14.942;2023-03-16T15:40:53;2.53;;;1.70;;